• Join FlightAware (Why Join?)
  • Login
  • US Flag 
07:23AM EDT


 

Airport Tracker/Info


-or-


 

Live Flight TrackerFlight Track Log ✈ N830QS ✈ 21-Aug-2013 ✈ KSAN - KSDL

Flight Track Log - Related Links

Times and Time Zones

All times are in EDT time to prevent confusion due to time zone crossing. See the N830QS flight status page for this flight to view local times or setup timezone preferences in your user account.

Time Position Orientation Groundspeed Altitude Reporting Facility
EDT Latitude Longitude Course Direction KTS MPH feet Rate Location/Type
10:46AM 32.7392 -117.2142 285° West 210 242 1,400  Level Los Angeles Center
10:47AM 32.7556 -117.2869 285° West 225 259 4,200 3,360 Climbing Los Angeles Center
10:48AM 32.6997 -117.3381 218° Southwest 254 292 8,400 3,420 Climbing Los Angeles Center
10:50AM 32.6586 -117.2608 122° Southeast 288 331 11,300 2,580 Climbing Los Angeles Center
10:51AM 32.6403 -117.1575 102° East 313 360 13,700 2,340 Climbing Los Angeles Center
10:52AM 32.6219 -117.0481 101° East 332 382 16,100 2,340 Climbing Los Angeles Center
10:53AM 32.6150 -116.9369 94° East 334 384 18,600 2,400 Climbing Los Angeles Center
10:54AM 32.6250 -116.8247 84° East 342 394 21,100 2,400 Climbing Los Angeles Center
10:55AM 32.6386 -116.6861 83° East 352 405 23,600 2,160 Climbing Los Angeles Center
10:56AM 32.6506 -116.5669 83° East 364 419 25,600 1,620 Climbing Los Angeles Center
10:57AM 32.6619 -116.4458 84° East 372 428 27,000 840 Climbing Los Angeles Center
10:58AM 32.6733 -116.3125 84° East 410 472 27,400 780 Climbing Los Angeles Center
10:59AM 32.6892 -116.1503 83° East 418 481 28,700 720 Climbing Los Angeles Center
11:00AM 32.7033 -116.0128 83° East 423 487 29,000 120 Climbing Los Angeles Center
11:01AM 32.7161 -115.8683 84° East 440 506 29,000  Level Los Angeles Center
11:02AM 32.7294 -115.7231 84° East 444 511 29,000  Level Los Angeles Center
11:03AM 32.7428 -115.5781 84° East 443 510 29,000  Level Los Angeles Center
11:04AM 32.7514 -115.4431 86° East 418 481 29,000  Level Los Angeles Center
11:05AM 32.7531 -115.2903 89° East 389 448 29,000  Level Los Angeles Center
11:06AM 32.7594 -115.1511 87° East 420 483 29,000  Level Los Angeles Center
11:07AM 32.7622 -115.0075 89° East 434 499 29,000  Level Los Angeles Center
11:08AM 32.7647 -114.8631 89° East 439 505 29,000  Level Los Angeles Center
11:09AM 32.7681 -114.7189 88° East 438 504 29,000  Level Los Angeles Center
11:10AM 32.7700 -114.5750 89° East 437 503 29,000  Level Los Angeles Center
11:11AM 32.7731 -114.4028 89° East 437 503 29,000 -540 Level Los Angeles Center
11:12AM 32.7739 -114.2572 90° East 442 509 28,000 -1,620 Descending Los Angeles Center
11:13AM 32.7758 -114.1164 89° East 429 494 25,700 -1,500 Descending Los Angeles Center
11:14AM 32.7772 -113.9786 89° East 418 481 25,000 -360 Descending Los Angeles Center
11:15AM 32.7964 -113.8417 81° East 423 487 25,000 -480 Level Los Angeles Center
11:16AM 32.8300 -113.6742 77° East 443 510 24,100 -960 Descending Los Angeles Center
11:17AM 32.9033 -113.5772 48° Northeast 429 494 23,100 -1,260 Descending Los Angeles Center
11:18AM 32.9942 -113.4919 38° Northeast 416 479 21,500 -1,740 Descending Los Angeles Center
11:19AM 33.0792 -113.4125 38° Northeast 395 455 19,500 -2,100 Descending Los Angeles Center
11:21AM 33.1742 -113.3236 38° Northeast 371 427 16,900 -2,100 Descending Albuquerque Center
11:22AM 33.2442 -113.2586 38° Northeast 347 399 14,900 -1,920 Descending Albuquerque Center
11:23AM 33.3108 -113.1981 37° Northeast 324 373 13,000 -1,860 Descending Albuquerque Center
11:24AM 33.3772 -113.1372 37° Northeast 311 358 11,100 -1,020 Descending Albuquerque Center
11:25AM 33.4614 -113.0594 38° Northeast 312 359 11,000 -60 Descending Albuquerque Center
11:26AM 33.5336 -112.9922 38° Northeast 318 366 11,000  Level Albuquerque Center
11:27AM 33.5928 -112.9061 50° Northeast 332 382 11,000 -240 Level Albuquerque Center
11:28AM 33.6381 -112.7933 64° Northeast 335 386 10,600 -1,020 Descending Albuquerque Center
11:29AM 33.6756 -112.7025 64° Northeast 287 330 9,000 -1,320 Descending Albuquerque Center
11:30AM 33.7075 -112.6206 65° Northeast 300 345 7,900 -780 Descending Albuquerque Center
11:31AM 33.7464 -112.5203 65° Northeast 286 329 7,400 -720 Descending Albuquerque Center
11:32AM 33.7800 -112.4328 65° Northeast 288 331 6,500 -720 Descending Albuquerque Center
11:33AM 33.7775 -112.3389 92° East 279 321 6,000 -300 Descending Albuquerque Center
11:34AM 33.7736 -112.2447 93° East 282 325 6,000  Level Albuquerque Center
11:35AM 33.7689 -112.1558 94° East 273 314 6,000 -540 Level Albuquerque Center
11:36AM 33.7647 -112.0672 93° East 225 259 5,000 -660 Descending Albuquerque Center
11:37AM 33.7428 -112.0008 112° Southeast 226 260 4,700 -960 Descending Albuquerque Center
11:38AM 33.6992 -111.9494 136° Southeast 223 257 3,100 -960 Descending Albuquerque Center
11:39AM 33.6789 -111.8989 116° Southeast 186 214 2,800 -540 Descending Albuquerque Center
11:40AM 33.6450 -111.8856 162° South 166 191 2,000 -660 Descending Albuquerque Center
11:41AM 33.6153 -111.9147 219° Southwest 143 165 1,500 -540 Descending Albuquerque Center